createdAt,value
2022-08-05T00:00:52.232Z,99261.09
2022-08-05T00:03:57.078Z,99260.13
2022-08-05T00:07:00.266Z,99258.84
2022-08-05T00:10:27.127Z,99253.34
2022-08-05T00:13:39.272Z,99259.91
2022-08-05T00:16:52.995Z,99260.13
2022-08-05T00:20:01.960Z,99261.78
2022-08-05T00:23:12.857Z,99258.13
2022-08-05T00:26:16.643Z,99250.41
2022-08-05T00:29:22.531Z,99250.06
2022-08-05T00:32:27.959Z,99249.72
2022-08-05T00:35:33.358Z,99244.94
2022-08-05T00:38:36.378Z,99246.84
2022-08-05T00:41:55.305Z,99254.06
2022-08-05T00:44:58.429Z,99257.44
2022-08-05T00:48:05.932Z,99256.41
2022-08-05T00:51:51.763Z,99257.25
2022-08-05T00:54:33.187Z,99253.63
2022-08-05T00:57:55.644Z,99265.19
2022-08-05T01:00:59.231Z,99253.94
2022-08-05T01:04:02.087Z,99250.59
2022-08-05T01:07:06.490Z,99258.66
2022-08-05T01:10:17.133Z,99252.13
2022-08-05T01:13:27.153Z,99258.28
2022-08-05T01:16:32.053Z,99260.00
2022-08-05T01:20:01.569Z,99277.41
2022-08-05T01:23:14.947Z,99274.25
2022-08-05T01:26:34.263Z,99260.19
2022-08-05T01:29:42.971Z,99269.41
2022-08-05T01:32:48.074Z,99275.72
2022-08-05T01:35:53.418Z,99269.06
2022-08-05T01:38:56.665Z,99272.50
2022-08-05T01:42:04.411Z,99278.78
2022-08-05T01:45:10.649Z,99277.41
2022-08-05T01:48:13.831Z,99271.03
2022-08-05T01:51:18.421Z,99267.22
2022-08-05T01:54:25.619Z,99272.41
2022-08-05T01:58:29.947Z,99272.06
2022-08-05T02:00:57.120Z,99271.03
2022-08-05T02:04:01.465Z,99277.56
2022-08-05T02:07:04.380Z,99273.03
2022-08-05T02:10:10.633Z,99268.03
2022-08-05T02:13:24.381Z,99262.16
2022-08-05T02:16:34.062Z,99267.38
2022-08-05T02:19:40.602Z,99263.69
2022-08-05T02:22:56.141Z,99263.69
2022-08-05T02:26:01.489Z,99259.00
2022-08-05T02:29:05.170Z,99250.78
2022-08-05T02:32:24.192Z,99245.44
2022-08-05T02:35:37.850Z,99254.97
2022-08-05T02:38:52.907Z,99257.19
2022-08-05T02:42:01.179Z,99261.19
2022-08-05T02:45:05.069Z,99258.53
2022-08-05T02:48:12.892Z,99260.69
2022-08-05T02:51:17.027Z,99267.72
2022-08-05T02:54:34.782Z,99256.31
2022-08-05T02:58:09.385Z,99264.56
2022-08-05T03:01:03.723Z,99262.34
2022-08-05T03:04:13.963Z,99259.63
2022-08-05T03:07:24.713Z,99269.34
2022-08-05T03:10:40.121Z,99260.47
2022-08-05T03:13:51.838Z,99264.31
2022-08-05T03:17:09.038Z,99269.16
2022-08-05T03:20:13.823Z,99276.66
2022-08-05T03:23:16.923Z,99279.84
2022-08-05T03:26:31.682Z,99270.66
2022-08-05T03:29:45.566Z,99281.13
2022-08-05T03:32:58.039Z,99269.09
2022-08-05T03:36:02.495Z,99269.06
2022-08-05T03:39:12.998Z,99277.09
2022-08-05T03:42:22.866Z,99277.16
2022-08-05T03:45:29.835Z,99273.78
2022-08-05T03:48:52.583Z,99269.69
2022-08-05T03:52:38.328Z,99268.44
2022-08-05T03:56:04.086Z,99270.97
2022-08-05T03:58:51.150Z,99267.28
2022-08-05T04:01:58.920Z,99274.34
2022-08-05T04:05:02.858Z,99272.56
2022-08-05T04:08:29.613Z,99272.56
2022-08-05T04:11:47.410Z,99278.00
2022-08-05T04:14:53.770Z,99271.75
2022-08-05T04:18:02.732Z,99275.22
2022-08-05T04:21:06.029Z,99279.66
2022-08-05T04:24:18.830Z,99275.09
2022-08-05T04:27:33.282Z,99280.59
2022-08-05T04:30:46.674Z,99278.16
2022-08-05T04:33:54.716Z,99286.47
2022-08-05T04:37:13.701Z,99290.84
2022-08-05T04:40:19.482Z,99294.59
2022-08-05T04:43:22.532Z,99307.31
2022-08-05T04:46:28.783Z,99302.56
2022-08-05T04:50:01.129Z,99299.69
2022-08-05T04:52:54.296Z,99296.22
2022-08-05T04:56:33.657Z,99295.16
2022-08-05T04:59:26.680Z,99285.28
2022-08-05T05:02:43.311Z,99285.28
2022-08-05T05:06:35.807Z,99283.06
2022-08-05T05:09:09.883Z,99291.84
2022-08-05T05:12:18.408Z,99284.00
2022-08-05T05:15:57.003Z,99275.75
2022-08-05T05:19:09.041Z,99272.34
2022-08-05T05:22:24.396Z,99271.19
2022-08-05T05:25:40.545Z,99275.28
2022-08-05T05:28:45.358Z,99279.25
2022-08-05T05:31:48.323Z,99281.09
2022-08-05T05:34:53.867Z,99287.16
2022-08-05T05:37:59.783Z,99285.56
2022-08-05T05:41:03.552Z,99274.75
2022-08-05T05:44:36.079Z,99274.81
2022-08-05T05:48:05.378Z,99281.78
2022-08-05T05:50:58.669Z,99274.94
2022-08-05T05:54:17.615Z,99293.06
2022-08-05T05:57:22.626Z,99284.28
2022-08-05T06:00:34.069Z,99282.41
2022-08-05T06:03:40.503Z,99300.41
2022-08-05T06:07:01.487Z,99292.13
2022-08-05T06:10:10.021Z,99294.84
2022-08-05T06:13:13.861Z,99294.84
2022-08-05T06:16:30.644Z,99303.13
2022-08-05T06:19:35.789Z,99315.56
2022-08-05T06:22:40.501Z,99312.50
2022-08-05T06:26:12.259Z,99309.53
2022-08-05T06:29:25.444Z,99325.56
2022-08-05T06:32:32.609Z,99331.50
2022-08-05T06:36:07.297Z,99333.06
2022-08-05T06:38:58.678Z,99335.84
2022-08-05T06:42:04.099Z,99333.88
2022-08-05T06:45:08.488Z,99342.03
2022-08-05T06:48:53.098Z,99337.06
2022-08-05T06:51:36.143Z,99345.47
2022-08-05T06:54:43.836Z,99343.63
2022-08-05T06:58:02.639Z,99351.69
2022-08-05T07:01:21.014Z,99350.69
2022-08-05T07:04:25.481Z,99359.91
2022-08-05T07:07:35.411Z,99356.38
2022-08-05T07:10:53.427Z,99355.00
2022-08-05T07:14:20.657Z,99363.25
2022-08-05T07:17:59.332Z,99362.16
2022-08-05T07:20:57.191Z,99363.81
2022-08-05T07:24:01.218Z,99365.22
2022-08-05T07:27:04.460Z,99371.25
2022-08-05T07:30:22.211Z,99362.38
2022-08-05T07:33:35.234Z,99371.69
2022-08-05T07:36:41.820Z,99376.53
2022-08-05T07:40:25.890Z,99378.22
2022-08-05T07:43:20.319Z,99382.22
2022-08-05T07:46:25.976Z,99385.16
2022-08-05T07:49:29.167Z,99381.50
2022-08-05T07:52:33.325Z,99381.78
2022-08-05T07:56:05.903Z,99378.56
2022-08-05T07:59:02.472Z,99379.31
2022-08-05T08:02:05.456Z,99374.16
2022-08-05T08:05:08.800Z,99374.94
2022-08-05T08:08:15.729Z,99370.25
2022-08-05T08:11:18.629Z,99370.47
2022-08-05T08:14:30.799Z,99378.72
2022-08-05T08:17:34.425Z,99379.09
2022-08-05T08:20:45.111Z,99377.44
2022-08-05T08:24:05.271Z,99380.97
2022-08-05T08:27:09.704Z,99383.09
2022-08-05T08:30:28.623Z,99386.59
2022-08-05T08:33:38.189Z,99388.78
2022-08-05T08:36:47.611Z,99391.72
2022-08-05T08:39:56.809Z,99389.50
2022-08-05T08:44:57.902Z,99396.63
2022-08-05T08:46:24.677Z,99396.53
2022-08-05T08:50:06.103Z,99399.69
2022-08-05T08:52:55.853Z,99399.38
2022-08-05T08:56:03.003Z,99400.63
2022-08-05T08:59:19.484Z,99399.38
2022-08-05T09:02:26.863Z,99400.47
2022-08-05T09:05:38.837Z,99405.38
2022-08-05T09:08:53.020Z,99405.19
2022-08-05T09:12:04.798Z,99412.50
2022-08-05T09:15:16.368Z,99410.59
2022-08-05T09:18:19.483Z,99422.28
2022-08-05T09:22:22.621Z,99416.13
2022-08-05T09:24:57.988Z,99409.94
2022-08-05T09:28:10.196Z,99407.03
2022-08-05T09:31:22.661Z,99411.78
2022-08-05T09:34:53.761Z,99415.53
2022-08-05T09:38:17.953Z,99412.47
2022-08-05T09:41:21.643Z,99401.88
2022-08-05T09:44:39.114Z,99399.69
2022-08-05T09:47:55.588Z,99403.41
2022-08-05T09:51:02.517Z,99393.19
2022-08-05T09:54:08.504Z,99376.31
2022-08-05T09:57:23.246Z,99393.56
2022-08-05T10:00:30.763Z,99392.53
2022-08-05T10:03:56.546Z,99387.53
2022-08-05T10:07:20.175Z,99378.00
2022-08-05T10:10:28.255Z,99375.31
2022-08-05T10:13:45.696Z,99373.00
2022-08-05T10:16:53.496Z,99374.88
2022-08-05T10:20:03.884Z,99374.50
2022-08-05T10:23:34.730Z,99373.63
2022-08-05T10:26:37.701Z,99381.13
2022-08-05T10:30:07.002Z,99378.88
2022-08-05T10:33:18.378Z,99380.72
2022-08-05T10:36:23.758Z,99384.91
2022-08-05T10:40:03.517Z,99387.19
2022-08-05T10:42:55.717Z,99386.75
2022-08-05T10:46:06.314Z,99389.66
2022-08-05T10:49:16.951Z,99386.53
2022-08-05T10:52:39.096Z,99392.75
2022-08-05T10:56:14.497Z,99396.31
2022-08-05T11:00:04.398Z,99396.78
2022-08-05T11:03:24.341Z,99393.25
2022-08-05T11:06:31.669Z,99397.63
2022-08-05T11:09:49.593Z,99399.53
2022-08-05T11:12:55.277Z,99389.34
2022-08-05T11:16:22.317Z,99390.59
2022-08-05T11:20:16.927Z,99386.81
2022-08-05T11:23:33.189Z,99381.59
2022-08-05T11:27:08.373Z,99387.22
2022-08-05T11:30:15.871Z,99366.47
2022-08-05T11:33:45.951Z,99373.97
2022-08-05T11:36:55.330Z,99379.78
2022-08-05T11:40:03.389Z,99386.84
2022-08-05T11:43:07.208Z,99375.63
2022-08-05T11:46:32.110Z,99386.66
2022-08-05T11:49:36.251Z,99376.88
2022-08-05T11:52:39.295Z,99396.44
2022-08-05T11:55:58.810Z,99387.06
2022-08-05T11:59:02.532Z,99385.63
2022-08-05T12:02:06.878Z,99379.16
2022-08-05T12:05:36.347Z,99374.38
2022-08-05T12:08:49.989Z,99387.06
2022-08-05T12:11:57.179Z,99380.59
2022-08-05T12:15:02.710Z,99387.50
2022-08-05T12:18:10.866Z,99382.47
2022-08-05T12:21:17.451Z,99379.53
2022-08-05T12:24:21.129Z,99378.53
2022-08-05T12:27:33.240Z,99382.47
2022-08-05T12:30:39.311Z,99379.75
2022-08-05T12:33:49.179Z,99368.69
2022-08-05T12:36:53.824Z,99372.66
2022-08-05T12:40:03.161Z,99374.34
2022-08-05T12:43:09.304Z,99374.34
2022-08-05T12:46:26.153Z,99374.69
2022-08-05T12:50:02.143Z,99374.03
2022-08-05T12:53:06.444Z,99372.72
2022-08-05T12:56:34.621Z,99385.72
2022-08-05T13:01:58.638Z,99377.66
2022-08-05T13:03:14.778Z,99374.56
2022-08-05T13:06:20.763Z,99379.78
2022-08-05T13:09:28.612Z,99373.13
2022-08-05T13:12:31.746Z,99384.56
2022-08-05T13:15:50.256Z,99382.09
2022-08-05T13:18:57.583Z,99376.47
2022-08-05T13:22:00.627Z,99380.59
2022-08-05T13:25:07.881Z,99390.19
2022-08-05T13:28:11.999Z,99376.47
2022-08-05T13:31:18.522Z,99373.31
2022-08-05T13:34:41.804Z,99372.91
2022-08-05T13:37:46.437Z,99366.69
2022-08-05T13:40:58.965Z,99364.81
2022-08-05T13:44:03.599Z,99371.19
2022-08-05T13:47:09.095Z,99365.47
2022-08-05T13:50:16.534Z,99359.50
2022-08-05T13:53:19.607Z,99354.31
2022-08-05T13:56:22.610Z,99353.72
2022-08-05T13:59:27.117Z,99355.03
2022-08-05T14:02:31.745Z,99357.34
2022-08-05T14:06:04.494Z,99347.69
2022-08-05T14:09:00.478Z,99348.66
2022-08-05T14:12:17.287Z,99351.88
2022-08-05T14:16:05.084Z,99365.22
2022-08-05T14:18:45.636Z,99371.25
2022-08-05T14:22:09.800Z,99375.19
2022-08-05T14:25:21.814Z,99394.97
2022-08-05T14:28:26.130Z,99392.00
2022-08-05T14:31:54.579Z,99396.16
2022-08-05T14:34:57.724Z,99394.28
2022-08-05T14:38:01.111Z,99386.59
2022-08-05T14:41:06.422Z,99388.31
2022-08-05T14:44:20.412Z,99386.41
2022-08-05T14:48:03.268Z,99373.34
2022-08-05T14:50:49.713Z,99379.97
2022-08-05T14:54:26.371Z,99396.31
2022-08-05T14:57:15.924Z,99394.97
2022-08-05T15:00:21.450Z,99392.22
2022-08-05T15:03:33.654Z,99398.09
2022-08-05T15:06:38.596Z,99393.09
2022-08-05T15:09:52.287Z,99384.75
2022-08-05T15:13:04.309Z,99385.41
2022-08-05T15:16:08.070Z,99384.56
2022-08-05T15:19:23.435Z,99393.09
2022-08-05T15:22:28.702Z,99398.41
2022-08-05T15:25:41.062Z,99403.84
2022-08-05T15:28:54.477Z,99400.06
2022-08-05T15:31:57.467Z,99393.59
2022-08-05T15:35:10.670Z,99394.06
2022-08-05T15:38:33.632Z,99395.09
2022-08-05T15:41:57.631Z,99400.31
2022-08-05T15:45:02.315Z,99401.34
2022-08-05T15:48:05.875Z,99391.25
2022-08-05T15:51:09.856Z,99391.47
2022-08-05T15:54:15.883Z,99395.41
2022-08-05T15:57:18.803Z,99395.28
2022-08-05T16:00:26.050Z,99392.97
2022-08-05T16:03:35.564Z,99396.44
2022-08-05T16:06:43.887Z,99387.44
2022-08-05T16:09:48.671Z,99386.59
2022-08-05T16:12:51.576Z,99398.84
2022-08-05T16:15:55.433Z,99397.59
2022-08-05T16:18:58.243Z,99394.06
2022-08-05T16:22:03.677Z,99389.09
2022-08-05T16:25:09.679Z,99396.00
2022-08-05T16:28:13.812Z,99398.25
2022-08-05T16:31:20.647Z,99407.50
2022-08-05T16:34:25.263Z,99407.09
2022-08-05T16:38:02.446Z,99409.44
2022-08-05T16:40:59.630Z,99407.63
2022-08-05T16:44:03.557Z,99411.84
2022-08-05T16:47:07.637Z,99415.53
2022-08-05T16:50:30.714Z,99413.63
2022-08-05T16:54:05.243Z,99423.25
2022-08-05T16:57:01.693Z,99421.97
2022-08-05T17:00:10.448Z,99427.47
2022-08-05T17:03:20.068Z,99425.78
2022-08-05T17:06:24.601Z,99425.31
2022-08-05T17:09:27.665Z,99429.41
2022-08-05T17:12:51.501Z,99429.84
2022-08-05T17:16:02.807Z,99435.91
2022-08-05T17:19:18.001Z,99433.28
2022-08-05T17:22:25.474Z,99442.81
2022-08-05T17:25:34.180Z,99447.31
2022-08-05T17:28:44.442Z,99444.41
2022-08-05T17:31:58.403Z,99442.34
2022-08-05T17:35:01.940Z,99444.09
2022-08-05T17:38:07.544Z,99461.28
2022-08-05T17:41:11.574Z,99460.69
2022-08-05T17:44:35.445Z,99459.94
2022-08-05T17:47:38.280Z,99456.19
2022-08-05T17:50:41.832Z,99469.88
2022-08-05T17:53:45.890Z,99460.47
2022-08-05T17:56:57.249Z,99466.78
2022-08-05T18:00:03.363Z,99473.38
2022-08-05T18:03:10.321Z,99474.09
2022-08-05T18:06:15.347Z,99477.47
2022-08-05T18:09:18.988Z,99480.88
2022-08-05T18:12:24.311Z,99479.88
2022-08-05T18:15:38.743Z,99477.31
2022-08-05T18:18:49.809Z,99481.06
2022-08-05T18:22:08.397Z,99479.88
2022-08-05T18:25:14.070Z,99477.03
2022-08-05T18:28:21.794Z,99483.56
2022-08-05T18:31:33.048Z,99479.22
2022-08-05T18:34:41.026Z,99479.88
2022-08-05T18:37:45.895Z,99477.50
2022-08-05T18:41:55.934Z,99486.38
2022-08-05T18:44:15.561Z,99488.09
2022-08-05T18:47:39.358Z,99481.06
2022-08-05T18:52:03.286Z,99480.72
2022-08-05T18:54:25.221Z,99478.53
2022-08-05T18:57:42.899Z,99498.63
2022-08-05T19:00:46.633Z,99493.44
2022-08-05T19:03:56.600Z,99497.31
2022-08-05T19:06:59.848Z,99490.25
2022-08-05T19:10:04.517Z,99501.78
2022-08-05T19:13:15.980Z,99498.94
2022-08-05T19:16:24.477Z,99496.25
2022-08-05T19:19:34.112Z,99498.50
2022-08-05T19:22:39.733Z,99490.59
2022-08-05T19:25:47.706Z,99492.94
2022-08-05T19:28:50.923Z,99496.13
2022-08-05T19:31:56.058Z,99493.25
2022-08-05T19:35:06.448Z,99486.59
2022-08-05T19:38:10.049Z,99490.44
2022-08-05T19:41:16.693Z,99495.66
2022-08-05T19:44:29.109Z,99492.56
2022-08-05T19:47:32.209Z,99489.63
2022-08-05T19:50:39.084Z,99478.59
2022-08-05T19:54:04.222Z,99482.53
2022-08-05T19:57:09.545Z,99475.59
2022-08-05T20:00:13.526Z,99479.75
2022-08-05T20:03:16.682Z,99476.97
2022-08-05T20:06:28.679Z,99476.94
2022-08-05T20:09:54.888Z,99479.16
2022-08-05T20:12:55.534Z,99469.66
2022-08-05T20:15:59.723Z,99467.00
2022-08-05T20:19:04.475Z,99471.69
2022-08-05T20:22:13.625Z,99460.19
2022-08-05T20:25:16.456Z,99467.28
2022-08-05T20:28:19.397Z,99456.75
2022-08-05T20:31:28.370Z,99454.00
2022-08-05T20:34:44.848Z,99451.63
2022-08-05T20:38:05.659Z,99461.56
2022-08-05T20:41:09.609Z,99459.97
2022-08-05T20:44:19.192Z,99466.41
2022-08-05T20:47:32.751Z,99464.94
2022-08-05T20:50:39.703Z,99469.41
2022-08-05T20:53:56.521Z,99463.41
2022-08-05T20:56:59.856Z,99467.69
2022-08-05T21:00:20.532Z,99462.94
2022-08-05T21:03:34.715Z,99451.13
2022-08-05T21:06:37.757Z,99453.00
2022-08-05T21:09:53.808Z,99449.84
2022-08-05T21:13:08.874Z,99449.59
2022-08-05T21:16:17.840Z,99447.38
2022-08-05T21:19:20.667Z,99437.69
2022-08-05T21:22:26.703Z,99444.94
2022-08-05T21:25:33.934Z,99443.34
2022-08-05T21:28:37.185Z,99426.94
2022-08-05T21:31:41.999Z,99430.28
2022-08-05T21:34:44.952Z,99432.34
2022-08-05T21:38:07.704Z,99435.00
2022-08-05T21:41:12.089Z,99425.63
2022-08-05T21:44:18.791Z,99426.75
2022-08-05T21:47:55.714Z,99432.94
2022-08-05T21:50:54.154Z,99425.75
2022-08-05T21:54:03.554Z,99430.56
2022-08-05T21:57:31.705Z,99432.91
2022-08-05T22:00:31.312Z,99432.34
2022-08-05T22:03:48.529Z,99426.97
2022-08-05T22:06:57.055Z,99424.59
2022-08-05T22:10:00.178Z,99432.19
2022-08-05T22:13:09.218Z,99430.72
2022-08-05T22:16:41.779Z,99425.59
2022-08-05T22:20:02.476Z,99426.81
2022-08-05T22:24:02.160Z,99429.16
2022-08-05T22:27:11.022Z,99429.47
2022-08-05T22:30:20.775Z,99436.41
2022-08-05T22:33:55.340Z,99426.97
2022-08-05T22:36:46.502Z,99422.78
2022-08-05T22:39:50.996Z,99423.75
2022-08-05T22:42:58.447Z,99421.25
2022-08-05T22:46:07.403Z,99425.72
2022-08-05T22:50:17.639Z,99422.97
2022-08-05T22:52:38.021Z,99423.38
2022-08-05T22:55:56.774Z,99420.69
2022-08-05T22:59:03.936Z,99425.59
2022-08-05T23:02:29.701Z,99422.66
2022-08-05T23:05:36.167Z,99424.81
2022-08-05T23:08:39.093Z,99426.75
2022-08-05T23:11:46.602Z,99433.38
2022-08-05T23:14:52.237Z,99432.06
2022-08-05T23:18:01.636Z,99433.81
2022-08-05T23:21:05.924Z,99450.06
2022-08-05T23:24:13.015Z,99451.53
2022-08-05T23:27:16.421Z,99468.19
2022-08-05T23:30:26.947Z,99461.50
2022-08-05T23:34:04.952Z,99450.56
2022-08-05T23:36:54.855Z,99460.53
2022-08-05T23:39:57.746Z,99469.78
2022-08-05T23:43:00.701Z,99464.22
2022-08-05T23:46:20.677Z,99461.44
2022-08-05T23:49:35.982Z,99464.00
2022-08-05T23:52:49.796Z,99468.44
2022-08-05T23:55:53.383Z,99457.47
2022-08-05T23:58:58.655Z,99444.84
